sensor_id;sensor_type;location;lat;lon;timestamp;P1;durP1;ratioP1;P2;durP2;ratioP2
10493;SDS011;5294;49.410;8.698;2023-02-01T00:02:03;6.20;;;5.53;;
10493;SDS011;5294;49.410;8.698;2023-02-01T00:04:29;5.77;;;5.27;;
10493;SDS011;5294;49.410;8.698;2023-02-01T00:06:55;5.70;;;5.30;;
10493;SDS011;5294;49.410;8.698;2023-02-01T00:09:21;5.80;;;5.40;;
10493;SDS011;5294;49.410;8.698;2023-02-01T00:11:47;5.57;;;5.13;;
10493;SDS011;5294;49.410;8.698;2023-02-01T00:14:13;5.43;;;4.93;;
10493;SDS011;5294;49.410;8.698;2023-02-01T00:16:39;5.77;;;5.37;;
10493;SDS011;5294;49.410;8.698;2023-02-01T00:19:07;5.63;;;5.13;;
10493;SDS011;5294;49.410;8.698;2023-02-01T00:21:33;5.97;;;5.43;;
10493;SDS011;5294;49.410;8.698;2023-02-01T00:24:02;6.20;;;5.60;;
10493;SDS011;5294;49.410;8.698;2023-02-01T00:28:57;6.23;;;5.73;;
10493;SDS011;5294;49.410;8.698;2023-02-01T00:31:25;6.00;;;5.50;;
10493;SDS011;5294;49.410;8.698;2023-02-01T00:33:51;6.03;;;5.53;;
10493;SDS011;5294;49.410;8.698;2023-02-01T00:36:17;6.07;;;5.47;;
10493;SDS011;5294;49.410;8.698;2023-02-01T00:38:43;5.97;;;5.50;;
10493;SDS011;5294;49.410;8.698;2023-02-01T00:41:13;7.17;;;6.30;;
10493;SDS011;5294;49.410;8.698;2023-02-01T00:43:39;6.10;;;5.60;;
10493;SDS011;5294;49.410;8.698;2023-02-01T00:46:06;6.03;;;5.53;;
10493;SDS011;5294;49.410;8.698;2023-02-01T00:48:32;5.90;;;5.40;;
10493;SDS011;5294;49.410;8.698;2023-02-01T00:51:04;6.10;;;5.60;;
10493;SDS011;5294;49.410;8.698;2023-02-01T00:53:30;6.73;;;6.23;;
10493;SDS011;5294;49.410;8.698;2023-02-01T00:55:56;6.10;;;5.60;;
10493;SDS011;5294;49.410;8.698;2023-02-01T00:58:22;6.57;;;5.97;;
10493;SDS011;5294;49.410;8.698;2023-02-01T01:03:27;6.17;;;5.67;;
10493;SDS011;5294;49.410;8.698;2023-02-01T01:05:56;6.43;;;5.93;;
10493;SDS011;5294;49.410;8.698;2023-02-01T01:08:22;6.57;;;5.97;;
10493;SDS011;5294;49.410;8.698;2023-02-01T01:10:48;6.17;;;5.67;;
10493;SDS011;5294;49.410;8.698;2023-02-01T01:13:14;6.47;;;5.93;;
10493;SDS011;5294;49.410;8.698;2023-02-01T01:15:40;6.33;;;5.80;;
10493;SDS011;5294;49.410;8.698;2023-02-01T01:18:09;5.87;;;5.37;;
10493;SDS011;5294;49.410;8.698;2023-02-01T01:20:35;6.27;;;5.67;;
10493;SDS011;5294;49.410;8.698;2023-02-01T01:23:02;6.60;;;6.00;;
10493;SDS011;5294;49.410;8.698;2023-02-01T01:25:28;6.57;;;5.87;;
10493;SDS011;5294;49.410;8.698;2023-02-01T01:27:54;6.53;;;6.03;;
10493;SDS011;5294;49.410;8.698;2023-02-01T01:30:20;6.83;;;6.23;;
10493;SDS011;5294;49.410;8.698;2023-02-01T01:32:46;6.63;;;6.00;;
10493;SDS011;5294;49.410;8.698;2023-02-01T01:35:12;6.27;;;5.77;;
10493;SDS011;5294;49.410;8.698;2023-02-01T01:37:40;6.73;;;5.60;;
10493;SDS011;5294;49.410;8.698;2023-02-01T01:40:09;6.40;;;5.83;;
10493;SDS011;5294;49.410;8.698;2023-02-01T01:42:41;6.07;;;5.47;;
10493;SDS011;5294;49.410;8.698;2023-02-01T01:47:54;6.40;;;5.80;;
10493;SDS011;5294;49.410;8.698;2023-02-01T01:50:23;8.40;;;6.00;;
10493;SDS011;5294;49.410;8.698;2023-02-01T01:52:50;6.37;;;5.77;;
10493;SDS011;5294;49.410;8.698;2023-02-01T01:55:18;6.40;;;5.90;;
10493;SDS011;5294;49.410;8.698;2023-02-01T01:57:50;5.97;;;5.50;;
10493;SDS011;5294;49.410;8.698;2023-02-01T02:00:20;6.77;;;6.17;;
10493;SDS011;5294;49.410;8.698;2023-02-01T02:02:47;6.20;;;5.63;;
10493;SDS011;5294;49.410;8.698;2023-02-01T02:05:13;5.80;;;5.30;;
10493;SDS011;5294;49.410;8.698;2023-02-01T02:07:45;6.57;;;5.77;;
10493;SDS011;5294;49.410;8.698;2023-02-01T02:10:13;6.17;;;5.57;;
10493;SDS011;5294;49.410;8.698;2023-02-01T02:12:40;6.33;;;5.73;;
10493;SDS011;5294;49.410;8.698;2023-02-01T02:15:10;5.60;;;5.20;;
10493;SDS011;5294;49.410;8.698;2023-02-01T02:27:50;5.77;;;5.37;;
10493;SDS011;5294;49.410;8.698;2023-02-01T02:38:13;6.00;;;5.50;;
10493;SDS011;5294;49.410;8.698;2023-02-01T02:40:53;6.80;;;6.10;;
10493;SDS011;5294;49.410;8.698;2023-02-01T02:43:22;6.60;;;6.00;;
10493;SDS011;5294;49.410;8.698;2023-02-01T02:46:20;7.47;;;6.10;;
10493;SDS011;5294;49.410;8.698;2023-02-01T02:49:10;7.33;;;6.53;;
10493;SDS011;5294;49.410;8.698;2023-02-01T02:54:29;7.17;;;6.37;;
10493;SDS011;5294;49.410;8.698;2023-02-01T02:57:19;7.60;;;6.83;;
10493;SDS011;5294;49.410;8.698;2023-02-01T03:00:06;7.23;;;6.50;;
10493;SDS011;5294;49.410;8.698;2023-02-01T03:02:51;7.53;;;6.83;;
10493;SDS011;5294;49.410;8.698;2023-02-01T03:05:36;8.03;;;7.23;;
10493;SDS011;5294;49.410;8.698;2023-02-01T03:15:58;7.37;;;6.67;;
10493;SDS011;5294;49.410;8.698;2023-02-01T03:18:50;9.10;;;6.80;;
10493;SDS011;5294;49.410;8.698;2023-02-01T03:21:33;7.07;;;6.37;;
10493;SDS011;5294;49.410;8.698;2023-02-01T03:24:02;7.10;;;6.50;;
10493;SDS011;5294;49.410;8.698;2023-02-01T03:26:29;6.87;;;6.27;;
10493;SDS011;5294;49.410;8.698;2023-02-01T03:29:05;6.77;;;6.17;;
10493;SDS011;5294;49.410;8.698;2023-02-01T03:31:33;7.80;;;7.10;;
10493;SDS011;5294;49.410;8.698;2023-02-01T03:33:59;6.80;;;6.30;;
10493;SDS011;5294;49.410;8.698;2023-02-01T03:36:26;7.07;;;6.10;;
10493;SDS011;5294;49.410;8.698;2023-02-01T03:39:15;6.53;;;5.90;;
10493;SDS011;5294;49.410;8.698;2023-02-01T03:44:18;6.90;;;6.30;;
10493;SDS011;5294;49.410;8.698;2023-02-01T03:46:53;6.90;;;6.30;;
10493;SDS011;5294;49.410;8.698;2023-02-01T03:49:22;7.03;;;6.43;;
10493;SDS011;5294;49.410;8.698;2023-02-01T03:51:50;8.27;;;6.70;;
10493;SDS011;5294;49.410;8.698;2023-02-01T03:54:16;7.10;;;6.50;;
10493;SDS011;5294;49.410;8.698;2023-02-01T03:56:46;7.57;;;6.87;;
10493;SDS011;5294;49.410;8.698;2023-02-01T03:59:13;7.80;;;7.00;;
10493;SDS011;5294;49.410;8.698;2023-02-01T04:01:39;7.10;;;6.50;;
10493;SDS011;5294;49.410;8.698;2023-02-01T04:04:08;7.60;;;6.90;;
10493;SDS011;5294;49.410;8.698;2023-02-01T04:06:34;7.10;;;6.40;;
10493;SDS011;5294;49.410;8.698;2023-02-01T04:09:00;7.93;;;6.10;;
10493;SDS011;5294;49.410;8.698;2023-02-01T04:11:27;7.73;;;6.90;;
10493;SDS011;5294;49.410;8.698;2023-02-01T04:13:54;8.00;;;6.87;;
10493;SDS011;5294;49.410;8.698;2023-02-01T04:16:22;7.63;;;6.90;;
10493;SDS011;5294;49.410;8.698;2023-02-01T04:18:48;7.60;;;6.90;;
10493;SDS011;5294;49.410;8.698;2023-02-01T04:21:14;8.00;;;6.73;;
10493;SDS011;5294;49.410;8.698;2023-02-01T04:23:43;8.50;;;7.60;;
10493;SDS011;5294;49.410;8.698;2023-02-01T04:26:09;7.73;;;7.13;;
10493;SDS011;5294;49.410;8.698;2023-02-01T04:28:35;7.83;;;6.90;;
10493;SDS011;5294;49.410;8.698;2023-02-01T04:31:01;7.67;;;6.93;;
10493;SDS011;5294;49.410;8.698;2023-02-01T04:33:29;8.53;;;7.73;;
10493;SDS011;5294;49.410;8.698;2023-02-01T04:35:55;8.07;;;7.33;;
10493;SDS011;5294;49.410;8.698;2023-02-01T04:38:21;8.20;;;7.40;;
10493;SDS011;5294;49.410;8.698;2023-02-01T04:40:47;7.80;;;7.10;;
10493;SDS011;5294;49.410;8.698;2023-02-01T04:43:14;8.13;;;7.20;;
10493;SDS011;5294;49.410;8.698;2023-02-01T04:45:40;9.20;;;7.53;;
10493;SDS011;5294;49.410;8.698;2023-02-01T04:48:06;9.40;;;8.00;;
10493;SDS011;5294;49.410;8.698;2023-02-01T04:50:32;8.17;;;7.37;;
10493;SDS011;5294;49.410;8.698;2023-02-01T04:52:57;8.23;;;7.30;;
10493;SDS011;5294;49.410;8.698;2023-02-01T04:55:23;7.53;;;6.73;;
10493;SDS011;5294;49.410;8.698;2023-02-01T04:57:49;8.50;;;7.60;;
10493;SDS011;5294;49.410;8.698;2023-02-01T05:00:15;7.87;;;7.07;;
10493;SDS011;5294;49.410;8.698;2023-02-01T05:02:41;7.63;;;6.93;;
10493;SDS011;5294;49.410;8.698;2023-02-01T05:05:08;7.10;;;6.40;;
10493;SDS011;5294;49.410;8.698;2023-02-01T05:07:34;7.30;;;6.60;;
10493;SDS011;5294;49.410;8.698;2023-02-01T05:10:00;7.67;;;6.97;;
10493;SDS011;5294;49.410;8.698;2023-02-01T05:12:25;7.67;;;7.00;;
10493;SDS011;5294;49.410;8.698;2023-02-01T05:15:10;7.33;;;6.67;;
10493;SDS011;5294;49.410;8.698;2023-02-01T05:17:36;8.90;;;7.73;;
10493;SDS011;5294;49.410;8.698;2023-02-01T05:20:05;8.07;;;7.23;;
10493;SDS011;5294;49.410;8.698;2023-02-01T05:22:31;7.83;;;6.93;;
10493;SDS011;5294;49.410;8.698;2023-02-01T05:24:57;7.40;;;6.80;;
10493;SDS011;5294;49.410;8.698;2023-02-01T05:27:25;8.17;;;6.70;;
10493;SDS011;5294;49.410;8.698;2023-02-01T05:29:51;7.60;;;6.80;;
10493;SDS011;5294;49.410;8.698;2023-02-01T05:32:19;7.37;;;6.67;;
10493;SDS011;5294;49.410;8.698;2023-02-01T05:34:48;7.23;;;6.53;;
10493;SDS011;5294;49.410;8.698;2023-02-01T05:37:14;7.40;;;6.23;;
10493;SDS011;5294;49.410;8.698;2023-02-01T05:39:40;6.63;;;5.93;;
10493;SDS011;5294;49.410;8.698;2023-02-01T05:42:06;6.20;;;5.70;;
10493;SDS011;5294;49.410;8.698;2023-02-01T05:44:31;7.53;;;6.83;;
10493;SDS011;5294;49.410;8.698;2023-02-01T05:46:57;6.30;;;5.80;;
10493;SDS011;5294;49.410;8.698;2023-02-01T05:49:23;6.10;;;5.60;;
10493;SDS011;5294;49.410;8.698;2023-02-01T05:51:49;6.83;;;6.10;;
10493;SDS011;5294;49.410;8.698;2023-02-01T05:54:15;6.27;;;5.77;;
10493;SDS011;5294;49.410;8.698;2023-02-01T05:56:44;6.60;;;6.00;;
10493;SDS011;5294;49.410;8.698;2023-02-01T05:59:10;6.60;;;6.00;;
10493;SDS011;5294;49.410;8.698;2023-02-01T06:01:36;6.97;;;6.37;;
10493;SDS011;5294;49.410;8.698;2023-02-01T06:04:02;8.40;;;7.00;;
10493;SDS011;5294;49.410;8.698;2023-02-01T06:06:28;7.57;;;6.80;;
10493;SDS011;5294;49.410;8.698;2023-02-01T06:08:56;7.37;;;6.77;;
10493;SDS011;5294;49.410;8.698;2023-02-01T06:11:25;8.53;;;7.27;;
10493;SDS011;5294;49.410;8.698;2023-02-01T06:13:51;7.47;;;6.80;;
10493;SDS011;5294;49.410;8.698;2023-02-01T06:16:17;7.40;;;6.60;;
10493;SDS011;5294;49.410;8.698;2023-02-01T06:18:45;7.23;;;6.60;;
10493;SDS011;5294;49.410;8.698;2023-02-01T06:21:11;7.83;;;7.13;;
10493;SDS011;5294;49.410;8.698;2023-02-01T06:23:39;9.50;;;7.00;;
10493;SDS011;5294;49.410;8.698;2023-02-01T06:26:08;9.10;;;7.53;;
10493;SDS011;5294;49.410;8.698;2023-02-01T06:28:34;8.77;;;7.40;;
10493;SDS011;5294;49.410;8.698;2023-02-01T06:31:06;11.00;;;7.20;;
10493;SDS011;5294;49.410;8.698;2023-02-01T06:33:33;40.17;;;10.80;;
10493;SDS011;5294;49.410;8.698;2023-02-01T06:35:59;29.43;;;9.50;;
10493;SDS011;5294;49.410;8.698;2023-02-01T06:38:28;14.60;;;7.87;;
10493;SDS011;5294;49.410;8.698;2023-02-01T06:40:54;44.83;;;11.00;;
10493;SDS011;5294;49.410;8.698;2023-02-01T06:43:23;24.10;;;9.13;;
10493;SDS011;5294;49.410;8.698;2023-02-01T06:45:50;10.90;;;7.30;;
10493;SDS011;5294;49.410;8.698;2023-02-01T06:48:18;18.33;;;13.33;;
10493;SDS011;5294;49.410;8.698;2023-02-01T06:50:44;11.13;;;8.33;;
10493;SDS011;5294;49.410;8.698;2023-02-01T06:53:10;15.17;;;8.60;;
10493;SDS011;5294;49.410;8.698;2023-02-01T06:55:36;13.70;;;8.67;;
10493;SDS011;5294;49.410;8.698;2023-02-01T06:58:02;9.93;;;8.40;;
10493;SDS011;5294;49.410;8.698;2023-02-01T07:00:28;9.20;;;7.90;;
10493;SDS011;5294;49.410;8.698;2023-02-01T07:02:54;9.90;;;7.40;;
10493;SDS011;5294;49.410;8.698;2023-02-01T07:05:23;8.33;;;7.53;;
10493;SDS011;5294;49.410;8.698;2023-02-01T07:07:51;8.37;;;7.10;;
10493;SDS011;5294;49.410;8.698;2023-02-01T07:10:17;8.97;;;7.90;;
10493;SDS011;5294;49.410;8.698;2023-02-01T07:12:43;9.70;;;8.73;;
10493;SDS011;5294;49.410;8.698;2023-02-01T07:15:09;8.73;;;7.90;;
10493;SDS011;5294;49.410;8.698;2023-02-01T07:17:35;9.57;;;8.57;;
10493;SDS011;5294;49.410;8.698;2023-02-01T07:20:01;14.80;;;9.17;;
10493;SDS011;5294;49.410;8.698;2023-02-01T07:22:27;11.27;;;8.37;;
10493;SDS011;5294;49.410;8.698;2023-02-01T07:24:53;10.00;;;8.10;;
10493;SDS011;5294;49.410;8.698;2023-02-01T07:27:19;13.30;;;8.70;;
10493;SDS011;5294;49.410;8.698;2023-02-01T07:29:52;10.20;;;8.27;;
10493;SDS011;5294;49.410;8.698;2023-02-01T07:32:20;11.90;;;8.77;;
10493;SDS011;5294;49.410;8.698;2023-02-01T07:34:46;12.37;;;8.60;;
10493;SDS011;5294;49.410;8.698;2023-02-01T07:37:12;13.80;;;8.27;;
10493;SDS011;5294;49.410;8.698;2023-02-01T07:39:38;11.13;;;7.90;;
10493;SDS011;5294;49.410;8.698;2023-02-01T07:42:06;14.33;;;8.17;;
10493;SDS011;5294;49.410;8.698;2023-02-01T07:44:32;11.03;;;7.60;;
10493;SDS011;5294;49.410;8.698;2023-02-01T07:46:58;11.27;;;7.57;;
10493;SDS011;5294;49.410;8.698;2023-02-01T07:49:24;8.17;;;6.83;;
10493;SDS011;5294;49.410;8.698;2023-02-01T07:51:50;10.10;;;7.07;;
10493;SDS011;5294;49.410;8.698;2023-02-01T07:54:16;9.80;;;6.20;;
10493;SDS011;5294;49.410;8.698;2023-02-01T07:56:44;11.03;;;8.63;;
10493;SDS011;5294;49.410;8.698;2023-02-01T07:59:10;7.50;;;6.27;;
10493;SDS011;5294;49.410;8.698;2023-02-01T08:01:36;9.33;;;6.33;;
10493;SDS011;5294;49.410;8.698;2023-02-01T08:04:03;8.00;;;5.60;;
10493;SDS011;5294;49.410;8.698;2023-02-01T08:06:30;7.57;;;6.00;;
10493;SDS011;5294;49.410;8.698;2023-02-01T08:08:56;8.47;;;6.50;;
10493;SDS011;5294;49.410;8.698;2023-02-01T08:11:23;11.73;;;8.67;;
10493;SDS011;5294;49.410;8.698;2023-02-01T08:13:52;13.50;;;7.17;;
10493;SDS011;5294;49.410;8.698;2023-02-01T08:16:19;8.97;;;6.87;;
10493;SDS011;5294;49.410;8.698;2023-02-01T08:18:45;11.10;;;7.70;;
10493;SDS011;5294;49.410;8.698;2023-02-01T08:21:13;10.73;;;7.10;;
10493;SDS011;5294;49.410;8.698;2023-02-01T08:23:40;10.73;;;6.93;;
10493;SDS011;5294;49.410;8.698;2023-02-01T08:26:10;9.63;;;6.97;;
10493;SDS011;5294;49.410;8.698;2023-02-01T08:28:40;9.83;;;7.77;;
10493;SDS011;5294;49.410;8.698;2023-02-01T08:31:07;8.77;;;6.63;;
10493;SDS011;5294;49.410;8.698;2023-02-01T08:33:36;12.07;;;7.17;;
10493;SDS011;5294;49.410;8.698;2023-02-01T08:36:05;8.37;;;6.63;;
10493;SDS011;5294;49.410;8.698;2023-02-01T08:38:36;9.53;;;6.77;;
10493;SDS011;5294;49.410;8.698;2023-02-01T08:41:06;10.50;;;7.10;;
10493;SDS011;5294;49.410;8.698;2023-02-01T08:43:32;9.73;;;6.97;;
10493;SDS011;5294;49.410;8.698;2023-02-01T08:45:58;10.60;;;6.43;;
10493;SDS011;5294;49.410;8.698;2023-02-01T08:48:24;12.07;;;7.13;;
10493;SDS011;5294;49.410;8.698;2023-02-01T08:50:50;9.03;;;7.20;;
10493;SDS011;5294;49.410;8.698;2023-02-01T08:53:18;9.13;;;7.30;;
10493;SDS011;5294;49.410;8.698;2023-02-01T08:55:47;8.47;;;6.90;;
10493;SDS011;5294;49.410;8.698;2023-02-01T08:58:14;10.20;;;6.57;;
10493;SDS011;5294;49.410;8.698;2023-02-01T09:00:41;10.10;;;7.40;;
10493;SDS011;5294;49.410;8.698;2023-02-01T09:03:09;8.80;;;6.93;;
10493;SDS011;5294;49.410;8.698;2023-02-01T09:05:35;11.27;;;7.87;;
10493;SDS011;5294;49.410;8.698;2023-02-01T09:08:01;13.20;;;7.47;;
10493;SDS011;5294;49.410;8.698;2023-02-01T09:10:27;10.97;;;7.63;;
10493;SDS011;5294;49.410;8.698;2023-02-01T09:12:56;10.40;;;7.43;;
10493;SDS011;5294;49.410;8.698;2023-02-01T09:15:22;12.03;;;7.97;;
10493;SDS011;5294;49.410;8.698;2023-02-01T09:17:50;11.30;;;6.90;;
10493;SDS011;5294;49.410;8.698;2023-02-01T09:20:19;12.00;;;6.93;;
10493;SDS011;5294;49.410;8.698;2023-02-01T09:22:48;11.23;;;7.97;;
10493;SDS011;5294;49.410;8.698;2023-02-01T09:25:14;16.83;;;10.80;;
10493;SDS011;5294;49.410;8.698;2023-02-01T09:27:43;10.53;;;7.33;;
10493;SDS011;5294;49.410;8.698;2023-02-01T09:30:09;10.07;;;6.83;;
10493;SDS011;5294;49.410;8.698;2023-02-01T09:32:35;11.17;;;7.37;;
10493;SDS011;5294;49.410;8.698;2023-02-01T09:35:02;10.27;;;6.80;;
10493;SDS011;5294;49.410;8.698;2023-02-01T09:37:28;10.73;;;7.10;;
10493;SDS011;5294;49.410;8.698;2023-02-01T09:39:54;13.87;;;6.93;;
10493;SDS011;5294;49.410;8.698;2023-02-01T09:42:27;14.17;;;6.63;;
10493;SDS011;5294;49.410;8.698;2023-02-01T09:47:43;11.07;;;6.30;;
10493;SDS011;5294;49.410;8.698;2023-02-01T09:50:15;13.80;;;7.10;;
10493;SDS011;5294;49.410;8.698;2023-02-01T09:52:55;9.03;;;6.07;;
10493;SDS011;5294;49.410;8.698;2023-02-01T09:55:41;13.50;;;7.30;;
10493;SDS011;5294;49.410;8.698;2023-02-01T09:58:11;12.53;;;6.13;;
10493;SDS011;5294;49.410;8.698;2023-02-01T10:00:39;12.77;;;5.70;;
10493;SDS011;5294;49.410;8.698;2023-02-01T10:03:07;12.47;;;6.13;;
10493;SDS011;5294;49.410;8.698;2023-02-01T10:10:51;14.87;;;6.70;;
10493;SDS011;5294;49.410;8.698;2023-02-01T10:13:44;13.37;;;7.20;;
10493;SDS011;5294;49.410;8.698;2023-02-01T10:18:54;12.53;;;6.27;;
10493;SDS011;5294;49.410;8.698;2023-02-01T10:21:35;8.37;;;5.50;;
10493;SDS011;5294;49.410;8.698;2023-02-01T10:26:45;12.97;;;5.87;;
10493;SDS011;5294;49.410;8.698;2023-02-01T10:29:19;12.83;;;6.30;;
10493;SDS011;5294;49.410;8.698;2023-02-01T10:31:45;12.70;;;5.57;;
10493;SDS011;5294;49.410;8.698;2023-02-01T10:34:33;11.97;;;5.70;;
10493;SDS011;5294;49.410;8.698;2023-02-01T10:37:02;12.30;;;5.97;;
10493;SDS011;5294;49.410;8.698;2023-02-01T10:39:33;9.97;;;5.33;;
10493;SDS011;5294;49.410;8.698;2023-02-01T10:42:00;8.57;;;5.20;;
10493;SDS011;5294;49.410;8.698;2023-02-01T10:44:26;13.97;;;5.50;;
10493;SDS011;5294;49.410;8.698;2023-02-01T10:46:53;10.73;;;5.37;;
10493;SDS011;5294;49.410;8.698;2023-02-01T10:49:38;11.67;;;5.47;;
10493;SDS011;5294;49.410;8.698;2023-02-01T10:52:17;13.23;;;5.33;;
10493;SDS011;5294;49.410;8.698;2023-02-01T10:54:45;14.87;;;5.83;;
10493;SDS011;5294;49.410;8.698;2023-02-01T10:59:46;14.67;;;5.53;;
10493;SDS011;5294;49.410;8.698;2023-02-01T11:04:58;10.93;;;5.53;;
10493;SDS011;5294;49.410;8.698;2023-02-01T11:07:24;10.60;;;5.33;;
10493;SDS011;5294;49.410;8.698;2023-02-01T11:09:54;11.63;;;5.07;;
10493;SDS011;5294;49.410;8.698;2023-02-01T11:12:26;13.33;;;5.90;;
10493;SDS011;5294;49.410;8.698;2023-02-01T11:14:56;9.70;;;5.23;;
10493;SDS011;5294;49.410;8.698;2023-02-01T11:17:32;10.63;;;5.10;;
10493;SDS011;5294;49.410;8.698;2023-02-01T11:20:00;12.37;;;6.40;;
10493;SDS011;5294;49.410;8.698;2023-02-01T11:22:28;12.63;;;5.87;;
10493;SDS011;5294;49.410;8.698;2023-02-01T11:24:55;11.53;;;5.93;;
10493;SDS011;5294;49.410;8.698;2023-02-01T11:27:22;11.73;;;5.70;;
10493;SDS011;5294;49.410;8.698;2023-02-01T11:29:50;15.17;;;5.60;;
10493;SDS011;5294;49.410;8.698;2023-02-01T11:32:17;11.37;;;5.63;;
10493;SDS011;5294;49.410;8.698;2023-02-01T11:34:45;10.33;;;5.47;;
10493;SDS011;5294;49.410;8.698;2023-02-01T11:37:21;11.20;;;5.70;;
10493;SDS011;5294;49.410;8.698;2023-02-01T11:39:56;11.13;;;5.30;;
10493;SDS011;5294;49.410;8.698;2023-02-01T11:42:23;12.03;;;5.40;;
10493;SDS011;5294;49.410;8.698;2023-02-01T11:44:49;10.07;;;5.63;;
10493;SDS011;5294;49.410;8.698;2023-02-01T11:49:51;13.70;;;6.03;;
10493;SDS011;5294;49.410;8.698;2023-02-01T11:57:34;11.33;;;5.23;;
10493;SDS011;5294;49.410;8.698;2023-02-01T12:00:08;15.37;;;6.20;;
10493;SDS011;5294;49.410;8.698;2023-02-01T12:08:07;14.73;;;5.70;;
10493;SDS011;5294;49.410;8.698;2023-02-01T12:13:40;14.83;;;5.93;;
10493;SDS011;5294;49.410;8.698;2023-02-01T12:16:26;15.93;;;5.87;;
10493;SDS011;5294;49.410;8.698;2023-02-01T12:39:40;11.87;;;5.73;;
10493;SDS011;5294;49.410;8.698;2023-02-01T12:42:14;14.00;;;6.07;;
10493;SDS011;5294;49.410;8.698;2023-02-01T12:49:40;10.87;;;5.67;;
10493;SDS011;5294;49.410;8.698;2023-02-01T12:52:10;14.83;;;6.00;;
10493;SDS011;5294;49.410;8.698;2023-02-01T12:54:50;10.27;;;5.60;;
10493;SDS011;5294;49.410;8.698;2023-02-01T12:57:27;12.27;;;5.93;;
10493;SDS011;5294;49.410;8.698;2023-02-01T12:59:59;11.23;;;5.67;;
10493;SDS011;5294;49.410;8.698;2023-02-01T13:02:33;13.63;;;5.40;;
10493;SDS011;5294;49.410;8.698;2023-02-01T13:07:52;12.07;;;5.90;;
10493;SDS011;5294;49.410;8.698;2023-02-01T13:12:56;10.93;;;5.80;;
10493;SDS011;5294;49.410;8.698;2023-02-01T13:17:57;13.83;;;6.57;;
10493;SDS011;5294;49.410;8.698;2023-02-01T13:20:31;12.37;;;5.27;;
10493;SDS011;5294;49.410;8.698;2023-02-01T13:23:03;11.47;;;5.17;;
10493;SDS011;5294;49.410;8.698;2023-02-01T13:28:00;9.33;;;5.10;;
10493;SDS011;5294;49.410;8.698;2023-02-01T13:30:34;13.47;;;5.10;;
10493;SDS011;5294;49.410;8.698;2023-02-01T13:43:05;13.47;;;5.33;;
10493;SDS011;5294;49.410;8.698;2023-02-01T13:45:35;11.48;;;5.20;;
10493;SDS011;5294;49.410;8.698;2023-02-01T13:48:03;12.27;;;5.40;;
10493;SDS011;5294;49.410;8.698;2023-02-01T13:50:31;11.37;;;5.80;;
10493;SDS011;5294;49.410;8.698;2023-02-01T13:55:34;12.63;;;6.10;;
10493;SDS011;5294;49.410;8.698;2023-02-01T13:58:02;9.90;;;5.10;;
10493;SDS011;5294;49.410;8.698;2023-02-01T14:00:36;14.07;;;6.10;;
10493;SDS011;5294;49.410;8.698;2023-02-01T14:13:32;12.20;;;5.20;;
10493;SDS011;5294;49.410;8.698;2023-02-01T14:22:00;10.87;;;6.13;;
10493;SDS011;5294;49.410;8.698;2023-02-01T14:29:21;9.77;;;5.20;;
10493;SDS011;5294;49.410;8.698;2023-02-01T14:31:52;12.53;;;5.33;;
10493;SDS011;5294;49.410;8.698;2023-02-01T14:34:22;10.70;;;5.37;;
10493;SDS011;5294;49.410;8.698;2023-02-01T14:36:54;12.77;;;5.30;;
10493;SDS011;5294;49.410;8.698;2023-02-01T14:39:23;12.10;;;5.60;;
10493;SDS011;5294;49.410;8.698;2023-02-01T14:41:55;11.13;;;5.10;;
10493;SDS011;5294;49.410;8.698;2023-02-01T14:44:23;9.87;;;4.80;;
10493;SDS011;5294;49.410;8.698;2023-02-01T14:47:02;11.60;;;5.40;;
10493;SDS011;5294;49.410;8.698;2023-02-01T14:49:38;12.43;;;5.43;;
10493;SDS011;5294;49.410;8.698;2023-02-01T14:52:06;10.93;;;5.07;;
10493;SDS011;5294;49.410;8.698;2023-02-01T14:54:35;15.97;;;5.07;;
10493;SDS011;5294;49.410;8.698;2023-02-01T14:57:01;12.60;;;5.40;;
10493;SDS011;5294;49.410;8.698;2023-02-01T14:59:28;14.90;;;5.77;;
10493;SDS011;5294;49.410;8.698;2023-02-01T15:01:58;14.27;;;4.93;;
10493;SDS011;5294;49.410;8.698;2023-02-01T15:04:27;11.03;;;5.00;;
10493;SDS011;5294;49.410;8.698;2023-02-01T15:06:54;16.80;;;6.30;;
10493;SDS011;5294;49.410;8.698;2023-02-01T15:09:26;14.60;;;6.20;;
10493;SDS011;5294;49.410;8.698;2023-02-01T15:12:03;11.63;;;5.63;;
10493;SDS011;5294;49.410;8.698;2023-02-01T15:14:40;12.50;;;5.33;;
10493;SDS011;5294;49.410;8.698;2023-02-01T15:17:26;12.73;;;6.17;;
10493;SDS011;5294;49.410;8.698;2023-02-01T15:19:59;8.43;;;4.40;;
10493;SDS011;5294;49.410;8.698;2023-02-01T15:22:26;13.43;;;5.00;;
10493;SDS011;5294;49.410;8.698;2023-02-01T15:24:53;10.90;;;5.13;;
10493;SDS011;5294;49.410;8.698;2023-02-01T15:27:21;8.40;;;5.20;;
10493;SDS011;5294;49.410;8.698;2023-02-01T15:29:48;9.37;;;4.90;;
10493;SDS011;5294;49.410;8.698;2023-02-01T15:32:30;9.07;;;4.87;;
10493;SDS011;5294;49.410;8.698;2023-02-01T15:34:57;8.67;;;4.43;;
10493;SDS011;5294;49.410;8.698;2023-02-01T15:37:23;10.77;;;4.87;;
10493;SDS011;5294;49.410;8.698;2023-02-01T15:42:32;7.07;;;4.37;;
10493;SDS011;5294;49.410;8.698;2023-02-01T15:44:58;13.40;;;5.33;;
10493;SDS011;5294;49.410;8.698;2023-02-01T15:47:28;11.13;;;4.67;;
10493;SDS011;5294;49.410;8.698;2023-02-01T15:49:58;8.90;;;4.73;;
10493;SDS011;5294;49.410;8.698;2023-02-01T15:52:26;12.10;;;5.40;;
10493;SDS011;5294;49.410;8.698;2023-02-01T15:55:16;10.73;;;5.07;;
10493;SDS011;5294;49.410;8.698;2023-02-01T15:57:45;10.57;;;4.90;;
10493;SDS011;5294;49.410;8.698;2023-02-01T16:02:59;10.40;;;5.37;;
10493;SDS011;5294;49.410;8.698;2023-02-01T16:08:06;12.53;;;5.10;;
10493;SDS011;5294;49.410;8.698;2023-02-01T16:10:40;10.77;;;4.80;;
10493;SDS011;5294;49.410;8.698;2023-02-01T16:13:07;10.33;;;4.73;;
10493;SDS011;5294;49.410;8.698;2023-02-01T16:15:33;11.90;;;5.07;;
10493;SDS011;5294;49.410;8.698;2023-02-01T16:18:00;12.17;;;4.63;;
10493;SDS011;5294;49.410;8.698;2023-02-01T16:20:29;8.80;;;5.00;;
10493;SDS011;5294;49.410;8.698;2023-02-01T16:22:58;12.10;;;5.13;;
10493;SDS011;5294;49.410;8.698;2023-02-01T16:25:24;14.60;;;5.80;;
10493;SDS011;5294;49.410;8.698;2023-02-01T16:27:52;11.67;;;5.73;;
10493;SDS011;5294;49.410;8.698;2023-02-01T16:30:18;10.63;;;5.77;;
10493;SDS011;5294;49.410;8.698;2023-02-01T16:32:57;11.37;;;5.37;;
10493;SDS011;5294;49.410;8.698;2023-02-01T16:35:25;11.17;;;5.57;;
10493;SDS011;5294;49.410;8.698;2023-02-01T16:37:51;12.77;;;5.40;;
10493;SDS011;5294;49.410;8.698;2023-02-01T16:40:20;11.67;;;5.60;;
10493;SDS011;5294;49.410;8.698;2023-02-01T16:42:49;10.33;;;5.43;;
10493;SDS011;5294;49.410;8.698;2023-02-01T16:45:18;15.47;;;7.30;;
10493;SDS011;5294;49.410;8.698;2023-02-01T16:47:46;11.07;;;5.40;;
10493;SDS011;5294;49.410;8.698;2023-02-01T16:50:16;14.03;;;5.97;;
10493;SDS011;5294;49.410;8.698;2023-02-01T16:52:42;9.70;;;4.80;;
10493;SDS011;5294;49.410;8.698;2023-02-01T16:55:11;12.87;;;5.87;;
10493;SDS011;5294;49.410;8.698;2023-02-01T16:57:40;12.00;;;5.50;;
10493;SDS011;5294;49.410;8.698;2023-02-01T17:00:07;12.27;;;6.43;;
10493;SDS011;5294;49.410;8.698;2023-02-01T17:02:36;12.80;;;5.63;;
10493;SDS011;5294;49.410;8.698;2023-02-01T17:05:02;13.60;;;5.97;;
10493;SDS011;5294;49.410;8.698;2023-02-01T17:07:28;10.80;;;5.13;;
10493;SDS011;5294;49.410;8.698;2023-02-01T17:09:54;12.83;;;6.00;;
10493;SDS011;5294;49.410;8.698;2023-02-01T17:12:27;15.50;;;6.07;;
10493;SDS011;5294;49.410;8.698;2023-02-01T17:14:54;15.83;;;6.87;;
10493;SDS011;5294;49.410;8.698;2023-02-01T17:17:20;13.00;;;5.90;;
10493;SDS011;5294;49.410;8.698;2023-02-01T17:19:48;12.00;;;6.20;;
10493;SDS011;5294;49.410;8.698;2023-02-01T17:22:20;12.90;;;5.73;;
10493;SDS011;5294;49.410;8.698;2023-02-01T17:24:46;10.67;;;5.80;;
10493;SDS011;5294;49.410;8.698;2023-02-01T17:27:12;14.10;;;5.87;;
10493;SDS011;5294;49.410;8.698;2023-02-01T17:29:39;10.27;;;5.30;;
10493;SDS011;5294;49.410;8.698;2023-02-01T17:32:12;14.07;;;6.23;;
10493;SDS011;5294;49.410;8.698;2023-02-01T17:34:40;15.67;;;6.70;;
10493;SDS011;5294;49.410;8.698;2023-02-01T17:37:08;9.37;;;5.30;;
10493;SDS011;5294;49.410;8.698;2023-02-01T17:39:40;12.17;;;6.77;;